Ackermanville, Pennsylvania
Current Conditions -  °F | °C
As of 8:51 AM on Friday 19 Dec 2014 (Local Time) from KABE Reporting Station
Overcast Overcast  
Wind Chill: -1°   Ceiling: 2700
Heat Index:   Visibility: 10mi
Dew Point: -3°   Wind: 7mph
Humidity: 67%   Direction: 310°NW
Pressure: 30.07"   Gusts: NA
Location:  40.84°N, 75.22°W
Report Text: KABE 191351Z 31006KT 10SM OVC027 02/M03 A3007 RMK AO2 SLP186 T00221033
Loading
Personal Weather Stations






























Interactive Weather Map New forecast layout! Learn more

10-Day Weather Forecast

Advertisements
Track Severe Weather on mobile